Cedarville, California
Current Conditions -  °F | °C
As of 3:55 PM on Friday 31 Oct 2014 (Local Time) from KAAT Reporting Station
Light Rain Light Rain  
Wind Chill: 41°   Ceiling: 3400
Heat Index: 44°   Visibility: 8mi
Dew Point: 41°   Wind: 6mph
Humidity: 89%   Direction: 300°WNW
Pressure: 29.82"   Gusts: NA
Location:  41.53°N, 120.18°W
Report Text: KAAT 312255Z AUTO 30005KT 8SM -RA FEW028 BKN034 OVC041 07/05 A2982 RMK AO2 SLP081 P0006 T00670050
Loading
Personal Weather Stations






























Interactive Weather Map
Tropical Storm Tracking
New forecast layout! Learn more

10-Day Weather Forecast

Advertisements
Track Severe Weather on mobile